sensor_id;sensor_type;location;lat;lon;timestamp;pressure;altitude;pressure_sealevel;temperature;humidity
7168;BME280;3625;51.762;14.320;2023-07-13T00:00:32;100332.19;;;21.42;55.00
7168;BME280;3625;51.762;14.320;2023-07-13T00:03:01;100340.25;;;21.42;54.88
7168;BME280;3625;51.762;14.320;2023-07-13T00:05:31;100340.88;;;21.45;54.86
7168;BME280;3625;51.762;14.320;2023-07-13T00:08:00;100318.69;;;21.29;54.96
7168;BME280;3625;51.762;14.320;2023-07-13T00:10:28;100340.03;;;21.45;55.03
7168;BME280;3625;51.762;14.320;2023-07-13T00:12:57;100349.09;;;21.44;55.27
7168;BME280;3625;51.762;14.320;2023-07-13T00:15:27;100351.97;;;21.41;55.68
7168;BME280;3625;51.762;14.320;2023-07-13T00:17:57;100346.69;;;21.39;55.66
7168;BME280;3625;51.762;14.320;2023-07-13T00:20:28;100318.75;;;21.15;55.55
7168;BME280;3625;51.762;14.320;2023-07-13T00:22:58;100286.50;;;20.88;55.98
7168;BME280;3625;51.762;14.320;2023-07-13T00:25:26;100346.78;;;21.25;56.15
7168;BME280;3625;51.762;14.320;2023-07-13T00:27:56;100354.63;;;21.28;56.40
7168;BME280;3625;51.762;14.320;2023-07-13T00:30:24;100343.13;;;21.26;56.79
7168;BME280;3625;51.762;14.320;2023-07-13T00:32:53;100348.81;;;21.22;57.19
7168;BME280;3625;51.762;14.320;2023-07-13T00:35:42;100348.19;;;21.18;57.82
7168;BME280;3625;51.762;14.320;2023-07-13T00:38:13;100351.22;;;21.12;57.83
7168;BME280;3625;51.762;14.320;2023-07-13T00:40:42;100324.59;;;20.95;57.93
7168;BME280;3625;51.762;14.320;2023-07-13T00:43:17;100337.44;;;21.04;57.50
7168;BME280;3625;51.762;14.320;2023-07-13T00:46:18;100290.53;;;20.68;57.42
7168;BME280;3625;51.762;14.320;2023-07-13T00:48:49;100358.94;;;21.18;56.82
7168;BME280;3625;51.762;14.320;2023-07-13T00:51:28;100332.63;;;21.09;56.48
7168;BME280;3625;51.762;14.320;2023-07-13T00:54:05;100328.50;;;21.03;57.05
7168;BME280;3625;51.762;14.320;2023-07-13T00:56:36;100311.13;;;20.82;57.77
7168;BME280;3625;51.762;14.320;2023-07-13T00:59:08;100306.38;;;20.73;59.00
7168;BME280;3625;51.762;14.320;2023-07-13T01:01:41;100301.34;;;20.54;59.42
7168;BME280;3625;51.762;14.320;2023-07-13T01:04:10;100304.53;;;20.32;59.76
7168;BME280;3625;51.762;14.320;2023-07-13T01:06:41;100274.56;;;20.12;59.96
7168;BME280;3625;51.762;14.320;2023-07-13T01:09:14;100328.91;;;20.44;59.30
7168;BME280;3625;51.762;14.320;2023-07-13T01:11:43;100296.09;;;20.24;59.16
7168;BME280;3625;51.762;14.320;2023-07-13T01:14:13;100289.41;;;20.17;58.65
7168;BME280;3625;51.762;14.320;2023-07-13T01:16:45;100333.66;;;20.40;58.85
7168;BME280;3625;51.762;14.320;2023-07-13T01:19:28;100302.66;;;20.20;58.08
7168;BME280;3625;51.762;14.320;2023-07-13T01:22:08;100353.88;;;20.31;58.03
7168;BME280;3625;51.762;14.320;2023-07-13T01:24:41;100353.19;;;20.28;57.96
7168;BME280;3625;51.762;14.320;2023-07-13T01:27:14;100352.88;;;20.32;57.66
7168;BME280;3625;51.762;14.320;2023-07-13T01:29:46;100348.78;;;20.41;57.52
7168;BME280;3625;51.762;14.320;2023-07-13T01:32:18;100340.94;;;20.38;57.35
7168;BME280;3625;51.762;14.320;2023-07-13T01:34:51;100360.59;;;20.39;57.18
7168;BME280;3625;51.762;14.320;2023-07-13T01:37:24;100353.75;;;20.33;57.40
7168;BME280;3625;51.762;14.320;2023-07-13T01:39:53;100356.94;;;20.25;57.49
7168;BME280;3625;51.762;14.320;2023-07-13T01:42:22;100357.16;;;20.22;57.61
7168;BME280;3625;51.762;14.320;2023-07-13T01:44:50;100318.22;;;20.01;57.46
7168;BME280;3625;51.762;14.320;2023-07-13T01:47:19;100338.63;;;20.18;57.61
7168;BME280;3625;51.762;14.320;2023-07-13T01:49:48;100344.28;;;20.27;57.58
7168;BME280;3625;51.762;14.320;2023-07-13T01:52:19;100345.72;;;20.19;57.91
7168;BME280;3625;51.762;14.320;2023-07-13T01:54:49;100350.13;;;20.20;58.07
7168;BME280;3625;51.762;14.320;2023-07-13T01:57:17;100350.53;;;20.14;58.35
7168;BME280;3625;51.762;14.320;2023-07-13T01:59:46;100354.09;;;20.14;58.28
7168;BME280;3625;51.762;14.320;2023-07-13T02:02:14;100344.94;;;20.17;58.43
7168;BME280;3625;51.762;14.320;2023-07-13T02:04:43;100345.81;;;20.17;58.39
7168;BME280;3625;51.762;14.320;2023-07-13T02:07:12;100353.78;;;20.19;58.46
7168;BME280;3625;51.762;14.320;2023-07-13T02:09:42;100354.56;;;20.21;58.64
7168;BME280;3625;51.762;14.320;2023-07-13T02:12:12;100350.81;;;20.23;58.68
7168;BME280;3625;51.762;14.320;2023-07-13T02:14:40;100343.72;;;20.22;59.10
7168;BME280;3625;51.762;14.320;2023-07-13T02:17:10;100347.00;;;20.13;59.37
7168;BME280;3625;51.762;14.320;2023-07-13T02:19:39;100363.56;;;20.20;59.41
7168;BME280;3625;51.762;14.320;2023-07-13T02:22:07;100361.66;;;20.22;59.54
7168;BME280;3625;51.762;14.320;2023-07-13T02:24:36;100340.28;;;20.06;59.53
7168;BME280;3625;51.762;14.320;2023-07-13T02:27:06;100358.88;;;20.09;59.83
7168;BME280;3625;51.762;14.320;2023-07-13T02:29:36;100308.34;;;19.73;60.12
7168;BME280;3625;51.762;14.320;2023-07-13T02:32:05;100353.69;;;19.92;60.41
7168;BME280;3625;51.762;14.320;2023-07-13T02:34:34;100350.63;;;19.98;61.11
7168;BME280;3625;51.762;14.320;2023-07-13T02:37:04;100349.28;;;19.91;61.45
7168;BME280;3625;51.762;14.320;2023-07-13T02:39:33;100349.84;;;19.82;61.52
7168;BME280;3625;51.762;14.320;2023-07-13T02:42:04;100316.31;;;19.61;62.13
7168;BME280;3625;51.762;14.320;2023-07-13T02:44:32;100352.06;;;19.75;62.01
7168;BME280;3625;51.762;14.320;2023-07-13T02:47:02;100353.97;;;19.73;62.24
7168;BME280;3625;51.762;14.320;2023-07-13T02:49:31;100343.13;;;19.61;62.60
7168;BME280;3625;51.762;14.320;2023-07-13T02:51:59;100350.53;;;19.71;62.36
7168;BME280;3625;51.762;14.320;2023-07-13T02:54:28;100356.16;;;19.67;62.23
7168;BME280;3625;51.762;14.320;2023-07-13T02:56:56;100357.03;;;19.53;62.95
7168;BME280;3625;51.762;14.320;2023-07-13T02:59:25;100356.84;;;19.40;63.57
7168;BME280;3625;51.762;14.320;2023-07-13T03:01:54;100366.41;;;19.30;64.29
7168;BME280;3625;51.762;14.320;2023-07-13T03:04:24;100359.84;;;19.36;65.04
7168;BME280;3625;51.762;14.320;2023-07-13T03:06:53;100365.69;;;19.42;64.67
7168;BME280;3625;51.762;14.320;2023-07-13T03:09:32;100343.03;;;19.32;65.43
7168;BME280;3625;51.762;14.320;2023-07-13T03:12:08;100356.47;;;19.46;65.75
7168;BME280;3625;51.762;14.320;2023-07-13T03:14:36;100370.38;;;19.54;65.60
7168;BME280;3625;51.762;14.320;2023-07-13T03:17:06;100379.16;;;19.56;66.22
7168;BME280;3625;51.762;14.320;2023-07-13T03:19:39;100378.97;;;19.59;66.88
7168;BME280;3625;51.762;14.320;2023-07-13T03:22:08;100383.31;;;19.62;68.12
7168;BME280;3625;51.762;14.320;2023-07-13T03:24:39;100341.72;;;19.39;68.61
7168;BME280;3625;51.762;14.320;2023-07-13T03:27:08;100390.41;;;19.63;68.56
7168;BME280;3625;51.762;14.320;2023-07-13T03:29:40;100379.16;;;19.56;68.64
7168;BME280;3625;51.762;14.320;2023-07-13T03:32:09;100361.66;;;19.35;69.18
7168;BME280;3625;51.762;14.320;2023-07-13T03:34:39;100359.19;;;19.16;69.84
7168;BME280;3625;51.762;14.320;2023-07-13T03:37:08;100392.97;;;19.35;70.29
7168;BME280;3625;51.762;14.320;2023-07-13T03:39:37;100403.44;;;19.39;70.42
7168;BME280;3625;51.762;14.320;2023-07-13T03:42:06;100403.84;;;19.47;70.55
7168;BME280;3625;51.762;14.320;2023-07-13T03:44:35;100407.25;;;19.51;70.53
7168;BME280;3625;51.762;14.320;2023-07-13T03:47:04;100376.19;;;19.31;70.69
7168;BME280;3625;51.762;14.320;2023-07-13T03:49:36;100414.34;;;19.52;70.63
7168;BME280;3625;51.762;14.320;2023-07-13T03:52:06;100409.06;;;19.50;70.89
7168;BME280;3625;51.762;14.320;2023-07-13T03:54:35;100408.28;;;19.48;70.81
7168;BME280;3625;51.762;14.320;2023-07-13T03:57:05;100365.91;;;19.23;70.89
7168;BME280;3625;51.762;14.320;2023-07-13T03:59:35;100400.28;;;19.47;70.96
7168;BME280;3625;51.762;14.320;2023-07-13T04:02:04;100405.25;;;19.54;70.55
7168;BME280;3625;51.762;14.320;2023-07-13T04:04:34;100312.69;;;19.02;70.13
7168;BME280;3625;51.762;14.320;2023-07-13T04:07:04;100408.22;;;19.64;69.90
7168;BME280;3625;51.762;14.320;2023-07-13T04:09:34;100382.91;;;19.38;70.38
7168;BME280;3625;51.762;14.320;2023-07-13T04:12:04;100372.63;;;19.31;70.35
7168;BME280;3625;51.762;14.320;2023-07-13T04:14:33;100429.34;;;19.70;70.74
7168;BME280;3625;51.762;14.320;2023-07-13T04:17:02;100324.50;;;19.13;70.44
7168;BME280;3625;51.762;14.320;2023-07-13T04:19:30;100432.69;;;19.74;70.40
7168;BME280;3625;51.762;14.320;2023-07-13T04:21:59;100435.28;;;19.75;70.43
7168;BME280;3625;51.762;14.320;2023-07-13T04:24:29;100425.16;;;19.80;70.68
7168;BME280;3625;51.762;14.320;2023-07-13T04:26:57;100421.38;;;19.83;70.45
7168;BME280;3625;51.762;14.320;2023-07-13T04:29:26;100437.72;;;19.94;70.29
7168;BME280;3625;51.762;14.320;2023-07-13T04:31:55;100437.94;;;20.05;69.52
7168;BME280;3625;51.762;14.320;2023-07-13T04:34:24;100443.97;;;20.09;69.46
7168;BME280;3625;51.762;14.320;2023-07-13T04:36:53;100344.66;;;19.50;69.80
7168;BME280;3625;51.762;14.320;2023-07-13T04:39:22;100300.84;;;19.20;70.03
7168;BME280;3625;51.762;14.320;2023-07-13T04:41:53;100446.56;;;20.10;69.19
7168;BME280;3625;51.762;14.320;2023-07-13T04:44:23;100358.69;;;19.70;68.51
7168;BME280;3625;51.762;14.320;2023-07-13T04:46:52;100412.69;;;20.08;67.94
7168;BME280;3625;51.762;14.320;2023-07-13T04:49:20;100445.84;;;20.37;67.96
7168;BME280;3625;51.762;14.320;2023-07-13T04:51:49;100459.25;;;20.51;67.44
7168;BME280;3625;51.762;14.320;2023-07-13T04:54:18;100455.53;;;20.53;67.14
7168;BME280;3625;51.762;14.320;2023-07-13T04:56:46;100455.53;;;20.53;67.09
7168;BME280;3625;51.762;14.320;2023-07-13T04:59:16;100452.63;;;20.42;68.36
7168;BME280;3625;51.762;14.320;2023-07-13T05:01:44;100325.25;;;19.45;69.24
7168;BME280;3625;51.762;14.320;2023-07-13T05:04:14;100461.63;;;20.13;70.30
7168;BME280;3625;51.762;14.320;2023-07-13T05:06:43;100342.09;;;19.33;71.10
7168;BME280;3625;51.762;14.320;2023-07-13T05:09:11;100459.91;;;19.98;71.30
7168;BME280;3625;51.762;14.320;2023-07-13T05:11:41;100476.97;;;20.11;71.42
7168;BME280;3625;51.762;14.320;2023-07-13T05:14:09;100481.69;;;20.21;71.17
7168;BME280;3625;51.762;14.320;2023-07-13T05:16:39;100482.84;;;20.31;71.10
7168;BME280;3625;51.762;14.320;2023-07-13T05:19:09;100474.41;;;20.23;71.18
7168;BME280;3625;51.762;14.320;2023-07-13T05:21:38;100463.38;;;20.14;71.90
7168;BME280;3625;51.762;14.320;2023-07-13T05:24:08;100440.97;;;19.99;72.50
7168;BME280;3625;51.762;14.320;2023-07-13T05:26:50;100478.13;;;20.21;72.40
7168;BME280;3625;51.762;14.320;2023-07-13T05:29:27;100481.31;;;20.27;72.41
7168;BME280;3625;51.762;14.320;2023-07-13T05:31:57;100476.72;;;20.29;71.89
7168;BME280;3625;51.762;14.320;2023-07-13T05:34:26;100456.16;;;20.14;72.50
7168;BME280;3625;51.762;14.320;2023-07-13T05:36:57;100480.53;;;20.25;72.42
7168;BME280;3625;51.762;14.320;2023-07-13T05:39:26;100486.28;;;20.33;71.67
7168;BME280;3625;51.762;14.320;2023-07-13T05:41:54;100488.25;;;20.46;71.13
7168;BME280;3625;51.762;14.320;2023-07-13T05:44:23;100479.72;;;20.53;70.19
7168;BME280;3625;51.762;14.320;2023-07-13T05:46:51;100482.00;;;20.74;69.60
7168;BME280;3625;51.762;14.320;2023-07-13T05:49:23;100506.31;;;21.13;68.71
7168;BME280;3625;51.762;14.320;2023-07-13T05:51:52;100495.69;;;21.38;67.60
7168;BME280;3625;51.762;14.320;2023-07-13T05:54:20;100495.75;;;21.51;66.68
7168;BME280;3625;51.762;14.320;2023-07-13T05:56:49;100496.47;;;21.40;66.59
7168;BME280;3625;51.762;14.320;2023-07-13T05:59:18;100490.78;;;21.18;66.83
7168;BME280;3625;51.762;14.320;2023-07-13T06:01:46;100447.38;;;20.96;66.88
7168;BME280;3625;51.762;14.320;2023-07-13T06:04:15;100485.53;;;21.29;66.35
7168;BME280;3625;51.762;14.320;2023-07-13T06:06:45;100455.69;;;21.20;65.49
7168;BME280;3625;51.762;14.320;2023-07-13T06:09:17;100498.47;;;21.64;65.16
7168;BME280;3625;51.762;14.320;2023-07-13T06:11:46;100510.06;;;21.91;64.36
7168;BME280;3625;51.762;14.320;2023-07-13T06:14:14;100454.44;;;21.65;64.19
7168;BME280;3625;51.762;14.320;2023-07-13T06:16:43;100346.44;;;20.90;64.30
7168;BME280;3625;51.762;14.320;2023-07-13T06:19:14;100328.22;;;20.81;64.60
7168;BME280;3625;51.762;14.320;2023-07-13T06:21:46;100502.19;;;21.75;65.13
7168;BME280;3625;51.762;14.320;2023-07-13T06:24:16;100505.91;;;21.60;65.50
7168;BME280;3625;51.762;14.320;2023-07-13T06:26:45;100458.09;;;21.24;65.42
7168;BME280;3625;51.762;14.320;2023-07-13T06:29:15;100460.50;;;21.15;65.68
7168;BME280;3625;51.762;14.320;2023-07-13T06:31:45;100341.03;;;20.37;66.40
7168;BME280;3625;51.762;14.320;2023-07-13T06:34:20;100493.34;;;21.20;67.02
7168;BME280;3625;51.762;14.320;2023-07-13T06:36:51;100418.94;;;20.65;67.22
7168;BME280;3625;51.762;14.320;2023-07-13T06:39:21;100494.06;;;21.09;67.56
7168;BME280;3625;51.762;14.320;2023-07-13T06:41:51;100493.56;;;21.02;67.72
7168;BME280;3625;51.762;14.320;2023-07-13T06:44:19;100467.75;;;20.86;67.74
7168;BME280;3625;51.762;14.320;2023-07-13T06:46:48;100448.66;;;20.76;68.04
7168;BME280;3625;51.762;14.320;2023-07-13T06:49:21;100441.59;;;20.75;67.32
7168;BME280;3625;51.762;14.320;2023-07-13T06:51:54;100368.84;;;20.36;67.46
7168;BME280;3625;51.762;14.320;2023-07-13T06:54:23;100310.84;;;20.05;67.71
7168;BME280;3625;51.762;14.320;2023-07-13T06:56:57;100492.09;;;21.11;67.66
7168;BME280;3625;51.762;14.320;2023-07-13T06:59:27;100490.00;;;21.16;67.62
7168;BME280;3625;51.762;14.320;2023-07-13T07:01:56;100500.28;;;21.24;67.37
7168;BME280;3625;51.762;14.320;2023-07-13T07:04:25;100449.28;;;21.08;67.08
7168;BME280;3625;51.762;14.320;2023-07-13T07:06:56;100455.88;;;21.17;66.28
7168;BME280;3625;51.762;14.320;2023-07-13T07:09:26;100313.44;;;20.33;66.31
7168;BME280;3625;51.762;14.320;2023-07-13T07:11:57;100490.56;;;21.48;65.76
7168;BME280;3625;51.762;14.320;2023-07-13T07:14:31;100493.63;;;21.56;65.63
7168;BME280;3625;51.762;14.320;2023-07-13T07:17:02;100412.91;;;21.15;65.34
7168;BME280;3625;51.762;14.320;2023-07-13T07:19:31;100391.69;;;21.10;64.56
7168;BME280;3625;51.762;14.320;2023-07-13T07:22:01;100502.88;;;21.92;62.36
7168;BME280;3625;51.762;14.320;2023-07-13T07:24:30;100503.03;;;22.03;60.75
7168;BME280;3625;51.762;14.320;2023-07-13T07:26:59;100505.84;;;22.14;60.42
7168;BME280;3625;51.762;14.320;2023-07-13T07:29:31;100498.63;;;22.27;60.22
7168;BME280;3625;51.762;14.320;2023-07-13T07:32:03;100505.00;;;22.39;59.42
7168;BME280;3625;51.762;14.320;2023-07-13T07:34:52;100508.13;;;22.45;57.36
7168;BME280;3625;51.762;14.320;2023-07-13T07:37:22;100509.63;;;22.49;56.87
7168;BME280;3625;51.762;14.320;2023-07-13T07:40:11;100361.91;;;21.66;56.60
7168;BME280;3625;51.762;14.320;2023-07-13T07:42:42;100529.16;;;22.66;54.81
7168;BME280;3625;51.762;14.320;2023-07-13T07:45:11;100510.59;;;22.61;53.47
7168;BME280;3625;51.762;14.320;2023-07-13T07:47:41;100526.47;;;22.78;52.80
7168;BME280;3625;51.762;14.320;2023-07-13T07:50:10;100527.53;;;22.88;51.88
7168;BME280;3625;51.762;14.320;2023-07-13T07:52:40;100499.31;;;23.05;50.86
7168;BME280;3625;51.762;14.320;2023-07-13T07:55:10;100544.66;;;24.08;48.95
7168;BME280;3625;51.762;14.320;2023-07-13T07:57:41;100449.38;;;24.73;47.12
7168;BME280;3625;51.762;14.320;2023-07-13T08:00:15;100546.44;;;26.08;44.86
7168;BME280;3625;51.762;14.320;2023-07-13T08:02:47;100532.25;;;26.37;43.65
7168;BME280;3625;51.762;14.320;2023-07-13T08:05:19;100467.19;;;25.84;42.65
7168;BME280;3625;51.762;14.320;2023-07-13T08:08:07;100436.06;;;25.35;43.26
7168;BME280;3625;51.762;14.320;2023-07-13T08:10:36;100564.47;;;25.98;43.95
7168;BME280;3625;51.762;14.320;2023-07-13T08:13:05;100564.97;;;26.24;42.87
7168;BME280;3625;51.762;14.320;2023-07-13T08:15:37;100569.50;;;26.35;42.06
7168;BME280;3625;51.762;14.320;2023-07-13T08:18:06;100535.00;;;26.25;42.22
7168;BME280;3625;51.762;14.320;2023-07-13T08:20:37;100527.81;;;26.04;42.58
7168;BME280;3625;51.762;14.320;2023-07-13T08:23:09;100553.94;;;25.84;42.47
7168;BME280;3625;51.762;14.320;2023-07-13T08:25:38;100559.78;;;26.00;42.65
7168;BME280;3625;51.762;14.320;2023-07-13T08:28:07;100567.06;;;26.00;42.75
7168;BME280;3625;51.762;14.320;2023-07-13T08:30:35;100572.94;;;25.73;42.40
7168;BME280;3625;51.762;14.320;2023-07-13T08:33:05;100569.78;;;25.45;42.82
7168;BME280;3625;51.762;14.320;2023-07-13T08:35:33;100557.63;;;25.17;41.69
7168;BME280;3625;51.762;14.320;2023-07-13T08:38:02;100533.66;;;24.91;42.35
7168;BME280;3625;51.762;14.320;2023-07-13T08:40:34;100565.91;;;25.16;42.63
7168;BME280;3625;51.762;14.320;2023-07-13T08:43:03;100561.00;;;25.53;42.37
7168;BME280;3625;51.762;14.320;2023-07-13T08:45:47;100479.81;;;25.74;41.03
7168;BME280;3625;51.762;14.320;2023-07-13T08:48:23;100533.91;;;26.79;40.31
7168;BME280;3625;51.762;14.320;2023-07-13T08:51:02;100575.63;;;27.39;39.41
7168;BME280;3625;51.762;14.320;2023-07-13T08:53:39;100526.41;;;27.32;39.16
7168;BME280;3625;51.762;14.320;2023-07-13T08:56:19;100578.44;;;27.77;37.53
7168;BME280;3625;51.762;14.320;2023-07-13T08:58:56;100563.47;;;27.53;37.83
7168;BME280;3625;51.762;14.320;2023-07-13T09:01:35;100480.50;;;26.89;37.86
7168;BME280;3625;51.762;14.320;2023-07-13T09:04:15;100545.41;;;27.23;38.88
7168;BME280;3625;51.762;14.320;2023-07-13T09:07:00;100580.22;;;27.48;38.08
7168;BME280;3625;51.762;14.320;2023-07-13T09:09:46;100469.97;;;26.96;38.10
7168;BME280;3625;51.762;14.320;2023-07-13T09:12:25;100576.03;;;27.84;38.09
7168;BME280;3625;51.762;14.320;2023-07-13T09:14:58;100541.94;;;27.90;38.30
7168;BME280;3625;51.762;14.320;2023-07-13T09:17:32;100546.38;;;28.00;37.94
7168;BME280;3625;51.762;14.320;2023-07-13T09:20:15;100573.16;;;27.76;37.43
7168;BME280;3625;51.762;14.320;2023-07-13T09:22:47;100574.88;;;27.37;38.87
7168;BME280;3625;51.762;14.320;2023-07-13T09:25:28;100532.88;;;27.01;39.22
7168;BME280;3625;51.762;14.320;2023-07-13T09:28:10;100546.38;;;27.12;39.52
7168;BME280;3625;51.762;14.320;2023-07-13T09:30:51;100581.41;;;27.15;39.59
7168;BME280;3625;51.762;14.320;2023-07-13T09:33:22;100575.88;;;26.75;39.95
7168;BME280;3625;51.762;14.320;2023-07-13T09:35:51;100554.22;;;26.34;40.79
7168;BME280;3625;51.762;14.320;2023-07-13T09:38:24;100554.03;;;26.14;40.64
7168;BME280;3625;51.762;14.320;2023-07-13T09:41:19;100579.28;;;26.26;40.82
7168;BME280;3625;51.762;14.320;2023-07-13T09:44:09;100557.06;;;26.00;40.86
7168;BME280;3625;51.762;14.320;2023-07-13T09:46:44;100578.72;;;26.11;41.51
7168;BME280;3625;51.762;14.320;2023-07-13T09:49:16;100547.75;;;25.93;41.53
7168;BME280;3625;51.762;14.320;2023-07-13T09:51:45;100581.88;;;26.27;41.43
7168;BME280;3625;51.762;14.320;2023-07-13T09:54:24;100585.47;;;26.28;40.97
7168;BME280;3625;51.762;14.320;2023-07-13T09:56:58;100555.75;;;26.26;40.96
7168;BME280;3625;51.762;14.320;2023-07-13T09:59:32;100576.25;;;26.40;40.93
7168;BME280;3625;51.762;14.320;2023-07-13T10:02:02;100574.25;;;26.63;40.87
7168;BME280;3625;51.762;14.320;2023-07-13T10:04:56;100573.63;;;27.01;40.76
7168;BME280;3625;51.762;14.320;2023-07-13T10:07:27;100579.34;;;27.48;39.95
7168;BME280;3625;51.762;14.320;2023-07-13T10:09:59;100576.03;;;27.84;38.49
7168;BME280;3625;51.762;14.320;2023-07-13T10:12:36;100582.03;;;28.07;37.88
7168;BME280;3625;51.762;14.320;2023-07-13T10:15:17;100581.44;;;27.94;37.40
7168;BME280;3625;51.762;14.320;2023-07-13T10:17:54;100571.00;;;27.79;37.07
7168;BME280;3625;51.762;14.320;2023-07-13T10:20:27;100590.91;;;27.90;36.77
7168;BME280;3625;51.762;14.320;2023-07-13T10:23:01;100491.22;;;27.31;36.23
7168;BME280;3625;51.762;14.320;2023-07-13T10:25:33;100600.25;;;28.16;36.34
7168;BME280;3625;51.762;14.320;2023-07-13T10:28:13;100510.84;;;28.11;35.76
7168;BME280;3625;51.762;14.320;2023-07-13T10:30:55;100609.31;;;28.92;35.07
7168;BME280;3625;51.762;14.320;2023-07-13T10:33:25;100601.53;;;29.07;35.39
7168;BME280;3625;51.762;14.320;2023-07-13T10:36:03;100579.63;;;28.99;35.25
7168;BME280;3625;51.762;14.320;2023-07-13T10:38:37;100508.34;;;28.57;35.08
7168;BME280;3625;51.762;14.320;2023-07-13T10:41:10;100600.22;;;29.11;34.34
7168;BME280;3625;51.762;14.320;2023-07-13T10:43:45;100525.19;;;28.33;33.23
7168;BME280;3625;51.762;14.320;2023-07-13T10:46:23;100574.44;;;28.39;34.01
7168;BME280;3625;51.762;14.320;2023-07-13T10:48:58;100574.16;;;28.42;34.33
7168;BME280;3625;51.762;14.320;2023-07-13T10:51:29;100470.78;;;27.94;34.19
7168;BME280;3625;51.762;14.320;2023-07-13T10:54:22;100598.34;;;28.55;33.55
7168;BME280;3625;51.762;14.320;2023-07-13T10:57:15;100575.31;;;28.30;34.50
7168;BME280;3625;51.762;14.320;2023-07-13T10:59:48;100596.94;;;28.41;35.22
7168;BME280;3625;51.762;14.320;2023-07-13T11:02:27;100594.94;;;28.24;35.25
7168;BME280;3625;51.762;14.320;2023-07-13T11:04:57;100466.59;;;27.42;35.15
7168;BME280;3625;51.762;14.320;2023-07-13T11:07:28;100587.06;;;28.31;35.71
7168;BME280;3625;51.762;14.320;2023-07-13T11:09:59;100594.50;;;28.38;35.42
7168;BME280;3625;51.762;14.320;2023-07-13T11:12:51;100585.78;;;28.44;35.18
7168;BME280;3625;51.762;14.320;2023-07-13T11:15:45;100562.03;;;28.18;33.51
7168;BME280;3625;51.762;14.320;2023-07-13T11:18:24;100597.53;;;28.16;33.38
7168;BME280;3625;51.762;14.320;2023-07-13T11:21:13;100584.16;;;28.61;32.85
7168;BME280;3625;51.762;14.320;2023-07-13T11:24:04;100566.47;;;28.94;32.76
7168;BME280;3625;51.762;14.320;2023-07-13T11:26:42;100586.03;;;29.44;31.86
7168;BME280;3625;51.762;14.320;2023-07-13T11:29:27;100587.19;;;29.87;31.69
7168;BME280;3625;51.762;14.320;2023-07-13T11:32:21;100580.53;;;29.99;31.70
7168;BME280;3625;51.762;14.320;2023-07-13T11:34:54;100576.94;;;29.98;31.99
7168;BME280;3625;51.762;14.320;2023-07-13T11:37:24;100393.75;;;28.50;32.42
7168;BME280;3625;51.762;14.320;2023-07-13T11:39:54;100571.06;;;29.21;32.66
7168;BME280;3625;51.762;14.320;2023-07-13T11:42:22;100574.28;;;28.60;33.36
7168;BME280;3625;51.762;14.320;2023-07-13T11:44:52;100546.38;;;27.91;33.92
7168;BME280;3625;51.762;14.320;2023-07-13T11:47:42;100374.03;;;26.36;34.76
7168;BME280;3625;51.762;14.320;2023-07-13T11:50:19;100567.00;;;27.34;35.22
7168;BME280;3625;51.762;14.320;2023-07-13T11:52:51;100438.84;;;26.70;35.31
7168;BME280;3625;51.762;14.320;2023-07-13T11:55:22;100392.56;;;26.31;34.81
7168;BME280;3625;51.762;14.320;2023-07-13T11:57:58;100564.16;;;26.95;35.27
7168;BME280;3625;51.762;14.320;2023-07-13T12:00:31;100371.50;;;25.93;35.75
7168;BME280;3625;51.762;14.320;2023-07-13T12:03:03;100481.84;;;26.74;35.53
7168;BME280;3625;51.762;14.320;2023-07-13T12:05:35;100460.63;;;26.89;35.08
7168;BME280;3625;51.762;14.320;2023-07-13T12:08:10;100576.16;;;27.83;34.29
7168;BME280;3625;51.762;14.320;2023-07-13T12:10:58;100566.59;;;28.17;33.97
7168;BME280;3625;51.762;14.320;2023-07-13T12:13:27;100589.78;;;28.31;33.45
7168;BME280;3625;51.762;14.320;2023-07-13T12:15:57;100583.91;;;28.35;33.41
7168;BME280;3625;51.762;14.320;2023-07-13T12:18:30;100562.25;;;28.14;33.68
7168;BME280;3625;51.762;14.320;2023-07-13T12:21:02;100597.06;;;28.11;33.97
7168;BME280;3625;51.762;14.320;2023-07-13T12:23:34;100507.25;;;27.43;34.05
7168;BME280;3625;51.762;14.320;2023-07-13T12:26:06;100395.56;;;26.68;34.28
7168;BME280;3625;51.762;14.320;2023-07-13T12:28:44;100560.56;;;27.85;34.38
7168;BME280;3625;51.762;14.320;2023-07-13T12:31:29;100539.66;;;27.66;33.80
7168;BME280;3625;51.762;14.320;2023-07-13T12:34:03;100530.47;;;27.76;33.87
7168;BME280;3625;51.762;14.320;2023-07-13T12:36:37;100565.16;;;27.84;33.86
7168;BME280;3625;51.762;14.320;2023-07-13T12:39:17;100579.00;;;27.71;34.15
7168;BME280;3625;51.762;14.320;2023-07-13T12:41:48;100562.97;;;27.68;34.12
7168;BME280;3625;51.762;14.320;2023-07-13T12:44:23;100539.16;;;27.41;35.13
7168;BME280;3625;51.762;14.320;2023-07-13T12:46:57;100567.06;;;27.53;34.75
7168;BME280;3625;51.762;14.320;2023-07-13T12:49:30;100561.06;;;27.50;34.74
7168;BME280;3625;51.762;14.320;2023-07-13T12:52:14;100535.59;;;27.41;34.86
7168;BME280;3625;51.762;14.320;2023-07-13T12:54:53;100554.81;;;27.59;34.24
7168;BME280;3625;51.762;14.320;2023-07-13T12:57:38;100560.56;;;27.75;34.41
7168;BME280;3625;51.762;14.320;2023-07-13T13:00:23;100555.41;;;27.82;34.04
7168;BME280;3625;51.762;14.320;2023-07-13T13:02:56;100555.25;;;27.73;33.98
7168;BME280;3625;51.762;14.320;2023-07-13T13:05:45;100539.56;;;27.37;33.06
7168;BME280;3625;51.762;14.320;2023-07-13T13:08:15;100530.03;;;27.02;34.12
7168;BME280;3625;51.762;14.320;2023-07-13T13:10:44;100526.72;;;26.99;34.61
7168;BME280;3625;51.762;14.320;2023-07-13T13:13:13;100525.16;;;26.96;34.86
7168;BME280;3625;51.762;14.320;2023-07-13T13:15:42;100417.56;;;26.35;34.92
7168;BME280;3625;51.762;14.320;2023-07-13T13:18:17;100523.38;;;27.35;34.55
7168;BME280;3625;51.762;14.320;2023-07-13T13:20:47;100532.75;;;27.62;34.02
7168;BME280;3625;51.762;14.320;2023-07-13T13:23:20;100512.75;;;27.72;33.28
7168;BME280;3625;51.762;14.320;2023-07-13T13:25:51;100534.22;;;28.24;32.99
7168;BME280;3625;51.762;14.320;2023-07-13T13:28:21;100500.34;;;28.45;32.38